createdAt,value
2023-04-26T00:00:18.751Z,12.30
2023-04-26T00:01:16.665Z,8.50
2023-04-26T00:02:16.725Z,10.60
2023-04-26T00:03:17.455Z,11.00
2023-04-26T00:04:16.935Z,13.10
2023-04-26T00:05:18.717Z,9.10
2023-04-26T00:06:16.637Z,9.50
2023-04-26T00:07:16.634Z,9.80
2023-04-26T00:08:16.674Z,10.70
2023-04-26T00:09:16.673Z,10.00
2023-04-26T00:10:16.639Z,9.60
2023-04-26T00:11:17.333Z,8.90
2023-04-26T00:12:16.565Z,10.60
2023-04-26T00:13:17.310Z,9.20
2023-04-26T00:14:16.654Z,8.10
2023-04-26T00:15:16.538Z,7.80
2023-04-26T00:16:16.583Z,8.10
2023-04-26T00:17:16.523Z,11.40
2023-04-26T00:18:16.553Z,11.30
2023-04-26T00:19:16.475Z,6.80
2023-04-26T00:20:16.515Z,9.40
2023-04-26T00:21:16.466Z,11.40
2023-04-26T00:22:16.454Z,7.20
2023-04-26T00:23:16.477Z,8.80
2023-04-26T00:24:17.264Z,10.70
2023-04-26T00:25:16.479Z,8.40
2023-04-26T00:26:16.478Z,9.70
2023-04-26T00:27:16.472Z,8.60
2023-04-26T00:28:16.474Z,11.20
2023-04-26T00:29:16.381Z,12.40
2023-04-26T00:30:16.445Z,7.90
2023-04-26T00:31:16.400Z,13.20
2023-04-26T00:32:16.402Z,17.70
2023-04-26T00:33:16.365Z,19.20
2023-04-26T00:34:17.323Z,14.90
2023-04-26T00:35:16.848Z,11.10
2023-04-26T00:36:16.394Z,11.80
2023-04-26T00:37:16.300Z,10.40
2023-04-26T00:38:16.322Z,8.50
2023-04-26T00:39:16.336Z,8.40
2023-04-26T00:40:16.337Z,11.20
2023-04-26T00:41:16.296Z,11.60
2023-04-26T00:42:16.260Z,14.40
2023-04-26T00:43:16.264Z,13.00
2023-04-26T00:44:16.263Z,12.70
2023-04-26T00:45:16.260Z,11.70
2023-04-26T00:46:16.328Z,18.40
2023-04-26T00:47:16.259Z,12.30
2023-04-26T00:48:16.222Z,15.10
2023-04-26T00:49:16.308Z,8.30
2023-04-26T00:50:16.217Z,12.60
2023-04-26T00:51:16.209Z,11.20
2023-04-26T00:52:16.185Z,9.70
2023-04-26T00:53:16.159Z,9.30
2023-04-26T00:54:16.129Z,11.70
2023-04-26T00:55:16.134Z,8.90
2023-04-26T00:56:16.174Z,12.20
2023-04-26T00:57:16.094Z,9.10
2023-04-26T00:58:16.125Z,10.50
2023-04-26T00:59:16.092Z,12.20
2023-04-26T01:00:16.091Z,12.10
2023-04-26T01:01:16.814Z,10.60
2023-04-26T01:02:16.145Z,11.80
2023-04-26T01:03:16.126Z,10.90
2023-04-26T01:04:16.463Z,12.20
2023-04-26T01:05:16.092Z,13.50
2023-04-26T01:06:16.076Z,10.10
2023-04-26T01:07:16.012Z,8.80
2023-04-26T01:08:15.990Z,8.80
2023-04-26T01:09:16.365Z,8.70
2023-04-26T01:10:15.984Z,11.60
2023-04-26T01:11:15.977Z,10.60
2023-04-26T01:12:15.952Z,11.50
2023-04-26T01:13:15.991Z,8.30
2023-04-26T01:14:15.956Z,8.90
2023-04-26T01:15:15.962Z,11.40
2023-04-26T01:16:15.955Z,11.10
2023-04-26T01:17:16.315Z,8.40
2023-04-26T01:18:16.349Z,10.40
2023-04-26T01:19:15.925Z,10.80
2023-04-26T01:20:15.986Z,11.20
2023-04-26T01:21:16.723Z,14.10
2023-04-26T01:22:15.906Z,13.90
2023-04-26T01:23:15.832Z,10.80
2023-04-26T01:24:15.850Z,10.40
2023-04-26T01:25:15.846Z,14.70
2023-04-26T01:26:15.805Z,9.50
2023-04-26T01:27:15.822Z,15.60
2023-04-26T01:28:15.825Z,11.00
2023-04-26T01:29:15.816Z,10.40
2023-04-26T01:30:15.846Z,10.80
2023-04-26T01:31:15.863Z,11.30
2023-04-26T01:32:15.781Z,10.30
2023-04-26T01:33:15.754Z,13.10
2023-04-26T01:34:15.783Z,12.40
2023-04-26T01:35:15.756Z,10.10
2023-04-26T01:36:16.022Z,11.30
2023-04-26T01:37:15.742Z,14.10
2023-04-26T01:38:15.696Z,12.50
2023-04-26T01:39:15.677Z,12.30
2023-04-26T01:40:15.698Z,13.30
2023-04-26T01:41:15.709Z,10.70
2023-04-26T01:42:15.646Z,13.40
2023-04-26T01:43:15.761Z,8.40
2023-04-26T01:44:15.682Z,9.70
2023-04-26T01:45:15.637Z,9.00
2023-04-26T01:46:15.630Z,9.60
2023-04-26T01:47:15.591Z,8.10
2023-04-26T01:48:15.628Z,11.10
2023-04-26T01:49:15.571Z,13.50
2023-04-26T01:50:15.574Z,11.00
2023-04-26T01:51:15.607Z,10.10
2023-04-26T01:52:15.600Z,12.40
2023-04-26T01:53:15.559Z,13.30
2023-04-26T01:54:15.565Z,13.90
2023-04-26T01:55:15.512Z,13.80
2023-04-26T01:56:15.523Z,16.20
2023-04-26T01:57:15.546Z,17.00
2023-04-26T01:58:15.548Z,18.80
2023-04-26T01:59:15.482Z,16.70
2023-04-26T02:00:15.497Z,13.10
2023-04-26T02:01:15.497Z,11.80
2023-04-26T02:02:15.483Z,14.00
2023-04-26T02:03:15.732Z,10.60
2023-04-26T02:04:15.495Z,12.50
2023-04-26T02:05:15.534Z,13.50
2023-04-26T02:06:15.404Z,10.90
2023-04-26T02:07:15.444Z,8.20
2023-04-26T02:08:15.354Z,11.20
2023-04-26T02:09:15.418Z,12.70
2023-04-26T02:10:15.374Z,8.40
2023-04-26T02:11:15.405Z,10.00
2023-04-26T02:12:15.358Z,10.90
2023-04-26T02:13:15.329Z,13.40
2023-04-26T02:14:15.343Z,9.80
2023-04-26T02:15:15.338Z,11.30
2023-04-26T02:16:15.337Z,11.90
2023-04-26T02:17:15.312Z,13.20
2023-04-26T02:18:15.297Z,13.10
2023-04-26T02:19:15.323Z,16.10
2023-04-26T02:20:15.255Z,13.40
2023-04-26T02:21:15.248Z,12.50
2023-04-26T02:22:15.279Z,12.10
2023-04-26T02:23:15.257Z,10.20
2023-04-26T02:24:15.219Z,12.10
2023-04-26T02:25:15.222Z,15.80
2023-04-26T02:26:15.232Z,15.40
2023-04-26T02:27:15.233Z,11.30
2023-04-26T02:28:15.213Z,23.50
2023-04-26T02:29:15.267Z,13.40
2023-04-26T02:30:15.193Z,14.00
2023-04-26T02:31:15.237Z,14.10
2023-04-26T02:32:15.170Z,17.40
2023-04-26T02:33:15.169Z,17.20
2023-04-26T02:34:15.093Z,14.00
2023-04-26T02:35:15.124Z,15.00
2023-04-26T02:36:15.100Z,10.70
2023-04-26T02:37:15.164Z,12.50
2023-04-26T02:38:15.103Z,12.90
2023-04-26T02:39:15.848Z,18.00
2023-04-26T02:40:15.046Z,14.60
2023-04-26T02:41:15.062Z,15.80
2023-04-26T02:42:15.039Z,11.30
2023-04-26T02:43:15.067Z,11.60
2023-04-26T02:44:15.039Z,10.50
2023-04-26T02:45:15.033Z,11.50
2023-04-26T02:46:17.179Z,26.20
2023-04-26T02:47:15.041Z,24.20
2023-04-26T02:48:14.955Z,20.30
2023-04-26T02:49:14.953Z,18.40
2023-04-26T02:50:15.043Z,22.30
2023-04-26T02:51:14.961Z,16.50
2023-04-26T02:52:14.938Z,21.80
2023-04-26T02:53:14.931Z,20.70
2023-04-26T02:54:14.908Z,20.60
2023-04-26T02:55:14.940Z,20.70
2023-04-26T02:56:14.889Z,16.80
2023-04-26T02:57:14.875Z,16.70
2023-04-26T02:58:14.857Z,17.50
2023-04-26T02:59:14.906Z,16.50
2023-04-26T03:00:14.876Z,14.60
2023-04-26T03:01:14.871Z,15.40
2023-04-26T03:02:14.891Z,11.80
2023-04-26T03:03:15.088Z,14.60
2023-04-26T03:04:15.041Z,15.70
2023-04-26T03:05:14.811Z,16.20
2023-04-26T03:06:14.776Z,15.30
2023-04-26T03:07:14.798Z,18.10
2023-04-26T03:08:14.770Z,16.00
2023-04-26T03:09:14.798Z,15.00
2023-04-26T03:10:14.756Z,17.30
2023-04-26T03:11:14.743Z,16.00
2023-04-26T03:12:14.707Z,15.90
2023-04-26T03:13:14.760Z,14.90
2023-04-26T03:14:14.729Z,20.10
2023-04-26T03:15:14.692Z,24.60
2023-04-26T03:16:14.837Z,15.50
2023-04-26T03:17:14.687Z,17.60
2023-04-26T03:18:14.703Z,18.00
2023-04-26T03:19:14.681Z,13.80
2023-04-26T03:20:14.661Z,15.70
2023-04-26T03:21:14.681Z,15.50
2023-04-26T03:22:14.679Z,17.20
2023-04-26T03:23:14.616Z,17.90
2023-04-26T03:24:14.616Z,15.20
2023-04-26T03:25:14.590Z,15.20
2023-04-26T03:26:14.616Z,15.40
2023-04-26T03:27:14.615Z,13.20
2023-04-26T03:28:14.576Z,15.20
2023-04-26T03:29:14.644Z,12.80
2023-04-26T03:30:14.546Z,15.60
2023-04-26T03:31:14.543Z,15.80
2023-04-26T03:32:14.551Z,13.60
2023-04-26T03:33:14.579Z,13.90
2023-04-26T03:34:14.469Z,16.20
2023-04-26T03:35:14.465Z,12.00
2023-04-26T03:36:14.417Z,13.30
2023-04-26T03:37:14.425Z,13.70
2023-04-26T03:38:14.413Z,12.70
2023-04-26T03:39:14.474Z,18.40
2023-04-26T03:40:14.429Z,14.80
2023-04-26T03:41:14.390Z,20.10
2023-04-26T03:42:14.386Z,19.10
2023-04-26T03:43:14.378Z,14.00
2023-04-26T03:44:14.358Z,25.60
2023-04-26T03:45:14.362Z,16.10
2023-04-26T03:46:14.440Z,27.90
2023-04-26T03:47:14.319Z,22.80
2023-04-26T03:48:14.320Z,21.20
2023-04-26T03:49:14.313Z,23.40
2023-04-26T03:50:15.223Z,18.80
2023-04-26T03:51:14.304Z,19.80
2023-04-26T03:52:14.301Z,17.40
2023-04-26T03:53:14.283Z,17.80
2023-04-26T03:54:14.250Z,20.10
2023-04-26T03:55:14.260Z,17.90
2023-04-26T03:56:14.339Z,18.90
2023-04-26T03:57:14.254Z,15.30
2023-04-26T03:58:14.204Z,14.90
2023-04-26T03:59:14.192Z,16.60
2023-04-26T04:00:14.208Z,23.80
2023-04-26T04:01:14.166Z,19.30
2023-04-26T04:02:14.234Z,18.20
2023-04-26T04:03:14.437Z,18.20
2023-04-26T04:04:14.366Z,20.00
2023-04-26T04:05:14.390Z,13.70
2023-04-26T04:06:14.133Z,13.00
2023-04-26T04:07:14.192Z,16.00
2023-04-26T04:08:14.099Z,18.70
2023-04-26T04:09:14.158Z,17.40
2023-04-26T04:10:14.108Z,20.70
2023-04-26T04:11:14.092Z,19.60
2023-04-26T04:12:14.088Z,13.30
2023-04-26T04:13:14.061Z,16.20
2023-04-26T04:14:14.094Z,17.30
2023-04-26T04:15:14.056Z,22.70
2023-04-26T04:16:14.084Z,32.60
2023-04-26T04:17:14.013Z,25.60
2023-04-26T04:18:14.018Z,26.50
2023-04-26T04:19:14.045Z,25.70
2023-04-26T04:20:14.005Z,20.40
2023-04-26T04:21:13.966Z,17.20
2023-04-26T04:22:13.957Z,19.60
2023-04-26T04:23:14.900Z,20.50
2023-04-26T04:24:13.944Z,16.60
2023-04-26T04:25:13.955Z,20.60
2023-04-26T04:26:13.935Z,20.40
2023-04-26T04:27:13.910Z,19.30
2023-04-26T04:28:13.921Z,13.60
2023-04-26T04:29:13.902Z,17.60
2023-04-26T04:30:13.856Z,15.20
2023-04-26T04:31:13.942Z,14.30
2023-04-26T04:32:13.853Z,13.40
2023-04-26T04:33:13.843Z,14.90
2023-04-26T04:34:13.854Z,28.60
2023-04-26T04:35:13.823Z,22.10
2023-04-26T04:36:13.856Z,22.90
2023-04-26T04:37:13.813Z,26.50
2023-04-26T04:38:13.886Z,24.70
2023-04-26T04:39:13.817Z,24.10
2023-04-26T04:40:13.769Z,21.70
2023-04-26T04:41:13.833Z,16.50
2023-04-26T04:42:13.739Z,18.20
2023-04-26T04:43:13.823Z,27.80
2023-04-26T04:44:13.739Z,22.10
2023-04-26T04:45:13.767Z,20.30
2023-04-26T04:46:13.757Z,22.40
2023-04-26T04:47:13.709Z,25.50
2023-04-26T04:48:13.717Z,24.10
2023-04-26T04:49:13.690Z,31.00
2023-04-26T04:50:13.650Z,29.80
2023-04-26T04:51:13.704Z,25.30
2023-04-26T04:52:13.651Z,26.30
2023-04-26T04:53:13.724Z,19.60
2023-04-26T04:54:13.686Z,23.10
2023-04-26T04:55:13.699Z,32.30
2023-04-26T04:56:13.626Z,28.30
2023-04-26T04:57:13.632Z,30.70
2023-04-26T04:58:13.582Z,24.50
2023-04-26T04:59:13.622Z,30.60
2023-04-26T05:00:13.620Z,24.10
2023-04-26T05:01:13.554Z,26.10
2023-04-26T05:02:13.737Z,25.00
2023-04-26T05:03:13.682Z,29.10
2023-04-26T05:04:13.750Z,23.00
2023-04-26T05:05:13.641Z,26.90
2023-04-26T05:06:13.561Z,31.50
2023-04-26T05:07:13.509Z,31.30
2023-04-26T05:08:13.483Z,27.90
2023-04-26T05:09:13.499Z,23.00
2023-04-26T05:10:13.503Z,27.00
2023-04-26T05:11:13.457Z,26.80
2023-04-26T05:12:13.502Z,26.40
2023-04-26T05:13:13.441Z,27.90
2023-04-26T05:14:13.439Z,27.90
2023-04-26T05:15:13.457Z,28.30
2023-04-26T05:16:13.491Z,32.60
2023-04-26T05:17:13.410Z,27.70
2023-04-26T05:18:13.421Z,27.60
2023-04-26T05:19:13.421Z,28.40
2023-04-26T05:20:13.368Z,27.60
2023-04-26T05:21:13.365Z,35.60
2023-04-26T05:22:13.367Z,34.10
2023-04-26T05:23:13.367Z,27.00
2023-04-26T05:24:13.312Z,26.40
2023-04-26T05:25:13.315Z,31.10
2023-04-26T05:26:13.298Z,30.00
2023-04-26T05:27:13.373Z,28.60
2023-04-26T05:28:13.336Z,32.30
2023-04-26T05:29:13.346Z,29.50
2023-04-26T05:30:13.283Z,30.30
2023-04-26T05:31:13.379Z,33.90
2023-04-26T05:32:13.272Z,29.90
2023-04-26T05:33:13.311Z,28.30
2023-04-26T05:34:13.231Z,33.20
2023-04-26T05:35:13.288Z,35.90
2023-04-26T05:36:13.281Z,29.90
2023-04-26T05:37:13.200Z,35.90
2023-04-26T05:38:13.245Z,36.50
2023-04-26T05:39:13.167Z,43.40
2023-04-26T05:40:13.187Z,37.00
2023-04-26T05:41:13.234Z,35.60
2023-04-26T05:42:13.491Z,35.70
2023-04-26T05:43:13.197Z,32.80
2023-04-26T05:44:13.844Z,35.30
2023-04-26T05:45:13.132Z,38.20
2023-04-26T05:46:13.198Z,44.20
2023-04-26T05:47:13.109Z,34.00
2023-04-26T05:48:13.192Z,36.10
2023-04-26T05:49:13.109Z,39.00
2023-04-26T05:50:13.064Z,39.90
2023-04-26T05:51:13.048Z,36.70
2023-04-26T05:52:13.026Z,41.50
2023-04-26T05:53:13.050Z,39.50
2023-04-26T05:54:13.012Z,36.90
2023-04-26T05:55:13.008Z,34.70
2023-04-26T05:56:13.007Z,41.80
2023-04-26T05:57:12.979Z,40.50
2023-04-26T05:58:13.044Z,39.70
2023-04-26T05:59:12.963Z,39.60
2023-04-26T06:00:12.975Z,35.20
2023-04-26T06:01:12.955Z,39.60
2023-04-26T06:02:13.001Z,37.40
2023-04-26T06:03:13.202Z,38.50
2023-04-26T06:04:13.078Z,34.90
2023-04-26T06:05:13.076Z,37.00
2023-04-26T06:06:12.885Z,30.30
2023-04-26T06:07:12.874Z,31.70
2023-04-26T06:08:12.870Z,38.10
2023-04-26T06:09:12.855Z,30.70
2023-04-26T06:10:12.844Z,30.50
2023-04-26T06:11:12.873Z,36.50
2023-04-26T06:12:12.834Z,36.40
2023-04-26T06:13:12.835Z,35.20
2023-04-26T06:14:23.167Z,31.40
2023-04-26T06:15:12.812Z,35.30
2023-04-26T06:16:12.785Z,32.20
2023-04-26T06:17:12.827Z,35.60
2023-04-26T06:18:12.828Z,30.20
2023-04-26T06:19:12.818Z,32.00
2023-04-26T06:20:12.745Z,34.40
2023-04-26T06:21:12.742Z,29.50
2023-04-26T06:22:12.727Z,29.80
2023-04-26T06:23:12.700Z,29.40
2023-04-26T06:24:12.722Z,28.90
2023-04-26T06:25:12.670Z,26.30
2023-04-26T06:26:12.695Z,29.20
2023-04-26T06:27:12.704Z,33.10
2023-04-26T06:28:12.694Z,28.00
2023-04-26T06:29:12.700Z,28.80
2023-04-26T06:30:12.639Z,30.00
2023-04-26T06:31:12.651Z,30.50
2023-04-26T06:32:12.662Z,30.60
2023-04-26T06:33:12.637Z,26.60
2023-04-26T06:34:12.595Z,29.00
2023-04-26T06:35:12.598Z,27.90
2023-04-26T06:36:12.779Z,24.90
2023-04-26T06:37:12.571Z,26.30
2023-04-26T06:38:12.632Z,28.40
2023-04-26T06:39:12.537Z,23.40
2023-04-26T06:40:12.569Z,25.60
2023-04-26T06:41:12.768Z,25.00
2023-04-26T06:42:12.548Z,24.60
2023-04-26T06:43:12.496Z,29.90
2023-04-26T06:44:12.541Z,27.70
2023-04-26T06:45:12.517Z,23.50
2023-04-26T06:46:13.386Z,24.40
2023-04-26T06:47:12.490Z,22.20
2023-04-26T06:48:12.490Z,21.80
2023-04-26T06:49:12.473Z,28.60
2023-04-26T06:50:12.448Z,25.00
2023-04-26T06:51:12.487Z,24.80
2023-04-26T06:52:12.429Z,23.50
2023-04-26T06:53:12.444Z,22.90
2023-04-26T06:54:12.450Z,25.20
2023-04-26T06:55:12.371Z,27.50
2023-04-26T06:56:12.392Z,21.20
2023-04-26T06:57:12.351Z,25.00
2023-04-26T06:58:12.379Z,25.10
2023-04-26T06:59:12.408Z,23.30
2023-04-26T07:00:12.353Z,21.20
2023-04-26T07:01:12.387Z,21.60
2023-04-26T07:02:13.882Z,27.40
2023-04-26T07:03:12.463Z,21.50
2023-04-26T07:04:12.469Z,22.10
2023-04-26T07:05:12.430Z,22.00
2023-04-26T07:06:12.290Z,23.50
2023-04-26T07:07:13.366Z,27.10
2023-04-26T07:08:12.254Z,23.60
2023-04-26T07:09:12.348Z,21.30
2023-04-26T07:10:12.252Z,21.20
2023-04-26T07:11:12.219Z,23.40
2023-04-26T07:12:12.253Z,21.70
2023-04-26T07:13:12.212Z,22.20
2023-04-26T07:14:12.210Z,21.70
2023-04-26T07:15:12.243Z,20.40
2023-04-26T07:16:12.220Z,23.30
2023-04-26T07:17:12.172Z,21.90
2023-04-26T07:18:12.262Z,20.50
2023-04-26T07:19:12.134Z,19.20
2023-04-26T07:20:12.179Z,21.30
2023-04-26T07:21:12.159Z,17.70
2023-04-26T07:22:12.137Z,17.40
2023-04-26T07:23:12.158Z,18.50
2023-04-26T07:24:12.089Z,18.50
2023-04-26T07:25:12.100Z,17.00
2023-04-26T07:26:12.106Z,16.40
2023-04-26T07:27:12.372Z,17.10
2023-04-26T07:28:12.057Z,18.80
2023-04-26T07:29:12.062Z,18.30
2023-04-26T07:30:12.031Z,14.40
2023-04-26T07:31:12.025Z,19.20
2023-04-26T07:32:12.023Z,18.00
2023-04-26T07:33:12.158Z,18.60
2023-04-26T07:34:11.987Z,19.20
2023-04-26T07:35:12.035Z,16.20
2023-04-26T07:36:12.097Z,14.80
2023-04-26T07:37:11.991Z,18.20
2023-04-26T07:38:11.949Z,16.00
2023-04-26T07:39:11.930Z,13.50
2023-04-26T07:40:11.943Z,15.90
2023-04-26T07:41:11.975Z,13.20
2023-04-26T07:42:11.892Z,14.10
2023-04-26T07:43:11.953Z,12.20
2023-04-26T07:44:11.959Z,12.10
2023-04-26T07:45:11.913Z,13.20
2023-04-26T07:46:11.929Z,15.70
2023-04-26T07:47:11.862Z,13.30
2023-04-26T07:48:11.900Z,13.90
2023-04-26T07:49:11.798Z,14.40
2023-04-26T07:50:11.842Z,12.10
2023-04-26T07:51:11.828Z,14.40
2023-04-26T07:52:11.857Z,15.30
2023-04-26T07:53:11.786Z,12.90
2023-04-26T07:54:11.756Z,13.30
2023-04-26T07:55:11.763Z,10.10
2023-04-26T07:56:11.778Z,9.40
2023-04-26T07:57:11.738Z,11.50
2023-04-26T07:58:11.807Z,10.00
2023-04-26T07:59:11.730Z,11.10
2023-04-26T08:00:11.750Z,10.40
2023-04-26T08:01:11.786Z,10.20
2023-04-26T08:02:11.738Z,9.70
2023-04-26T08:03:11.879Z,12.90
2023-04-26T08:04:11.845Z,10.70
2023-04-26T08:05:11.940Z,8.60
2023-04-26T08:06:11.834Z,12.10
2023-04-26T08:07:11.680Z,10.90
2023-04-26T08:08:11.621Z,11.60
2023-04-26T08:09:11.648Z,8.80
2023-04-26T08:10:11.677Z,12.90
2023-04-26T08:11:11.671Z,12.70
2023-04-26T08:12:11.666Z,11.40
2023-04-26T08:13:11.581Z,14.50
2023-04-26T08:14:11.614Z,14.20
2023-04-26T08:15:11.564Z,8.60
2023-04-26T08:16:11.565Z,11.40
2023-04-26T08:17:11.602Z,10.70
2023-04-26T08:18:11.646Z,11.40
2023-04-26T08:19:11.513Z,11.70
2023-04-26T08:20:11.519Z,13.10
2023-04-26T08:21:11.475Z,12.30
2023-04-26T08:22:11.491Z,10.70
2023-04-26T08:23:11.645Z,12.10
2023-04-26T08:24:11.476Z,8.30
2023-04-26T08:25:11.480Z,8.10
2023-04-26T08:26:11.438Z,11.80
2023-04-26T08:27:11.403Z,10.10
2023-04-26T08:28:11.456Z,8.40
2023-04-26T08:29:11.427Z,8.20
2023-04-26T08:30:11.437Z,10.70
2023-04-26T08:31:11.396Z,7.80
2023-04-26T08:32:11.426Z,9.90
2023-04-26T08:33:11.346Z,11.00
2023-04-26T08:34:11.429Z,8.80
2023-04-26T08:35:11.316Z,12.10
2023-04-26T08:36:11.349Z,8.60
2023-04-26T08:37:11.309Z,8.50
2023-04-26T08:38:11.314Z,12.40
2023-04-26T08:39:11.340Z,9.20
2023-04-26T08:40:11.339Z,10.00
2023-04-26T08:41:11.247Z,7.60
2023-04-26T08:42:11.289Z,8.10
2023-04-26T08:43:11.260Z,10.40
2023-04-26T08:44:11.329Z,9.50
2023-04-26T08:45:11.229Z,9.60
2023-04-26T08:46:11.241Z,9.10
2023-04-26T08:47:11.201Z,7.80
2023-04-26T08:48:11.255Z,8.10
2023-04-26T08:49:11.212Z,7.30
2023-04-26T08:50:11.246Z,11.30
2023-04-26T08:51:11.166Z,11.50
2023-04-26T08:52:11.178Z,10.70
2023-04-26T08:53:11.141Z,8.10
2023-04-26T08:54:11.136Z,7.80
2023-04-26T08:55:11.183Z,8.60
2023-04-26T08:56:11.115Z,13.70
2023-04-26T08:57:11.138Z,8.90
2023-04-26T08:58:11.114Z,9.30
2023-04-26T08:59:11.802Z,6.90
2023-04-26T09:00:11.074Z,8.70
2023-04-26T09:01:11.066Z,9.50
2023-04-26T09:02:11.168Z,9.80
2023-04-26T09:03:11.159Z,9.80
2023-04-26T09:04:11.251Z,8.20
2023-04-26T09:05:11.214Z,10.10
2023-04-26T09:06:11.069Z,10.20
2023-04-26T09:07:10.980Z,9.90
2023-04-26T09:08:11.039Z,9.50
2023-04-26T09:09:10.975Z,9.40
2023-04-26T09:10:11.026Z,9.20
2023-04-26T09:11:10.986Z,9.80
2023-04-26T09:12:10.967Z,10.80
2023-04-26T09:13:10.934Z,10.50
2023-04-26T09:14:10.941Z,12.50
2023-04-26T09:15:10.909Z,11.10
2023-04-26T09:16:10.994Z,9.70
2023-04-26T09:17:10.911Z,9.70
2023-04-26T09:18:10.902Z,10.00
2023-04-26T09:19:10.857Z,8.90
2023-04-26T09:20:10.837Z,10.00
2023-04-26T09:21:10.846Z,12.90
2023-04-26T09:22:10.973Z,9.80
2023-04-26T09:23:10.851Z,11.20
2023-04-26T09:24:10.871Z,10.60
2023-04-26T09:25:10.792Z,11.50
2023-04-26T09:26:10.836Z,7.80
2023-04-26T09:27:10.800Z,8.20
2023-04-26T09:28:10.793Z,8.00
2023-04-26T09:29:10.761Z,8.20
2023-04-26T09:30:10.754Z,9.40
2023-04-26T09:31:10.813Z,7.50
2023-04-26T09:32:10.775Z,6.30
2023-04-26T09:33:10.748Z,10.00
2023-04-26T09:34:10.752Z,7.30
2023-04-26T09:35:10.679Z,7.30
2023-04-26T09:36:10.694Z,8.30
2023-04-26T09:37:10.706Z,8.90
2023-04-26T09:38:13.234Z,8.90
2023-04-26T09:39:10.694Z,8.80
2023-04-26T09:40:10.630Z,8.80
2023-04-26T09:41:10.615Z,7.60
2023-04-26T09:42:10.671Z,8.30
2023-04-26T09:43:10.685Z,7.90
2023-04-26T09:44:10.621Z,6.60
2023-04-26T09:45:10.615Z,10.10
2023-04-26T09:46:10.599Z,6.60
2023-04-26T09:47:10.593Z,8.40
2023-04-26T09:48:11.582Z,9.10
2023-04-26T09:49:10.526Z,8.00
2023-04-26T09:50:10.525Z,7.80
2023-04-26T09:51:10.502Z,8.30
2023-04-26T09:52:10.521Z,7.40
2023-04-26T09:53:10.530Z,6.50
2023-04-26T09:54:10.516Z,7.10
2023-04-26T09:55:14.368Z,8.80
2023-04-26T09:56:10.468Z,10.40
2023-04-26T09:57:10.447Z,5.50
2023-04-26T09:58:10.494Z,7.30
2023-04-26T09:59:10.468Z,9.40
2023-04-26T10:00:10.434Z,7.90
2023-04-26T10:01:10.696Z,11.50
2023-04-26T10:02:10.381Z,8.00
2023-04-26T10:03:10.500Z,8.60
2023-04-26T10:04:10.452Z,8.20
2023-04-26T10:05:10.431Z,7.10
2023-04-26T10:06:10.468Z,5.30
2023-04-26T10:07:10.336Z,6.20
2023-04-26T10:08:10.356Z,7.00
2023-04-26T10:09:12.921Z,8.30
2023-04-26T10:10:10.296Z,8.10
2023-04-26T10:11:10.285Z,6.30
2023-04-26T10:12:10.277Z,7.90
2023-04-26T10:13:10.996Z,6.90
2023-04-26T10:14:10.370Z,5.20
2023-04-26T10:15:10.234Z,10.60
2023-04-26T10:16:10.609Z,8.10
2023-04-26T10:17:10.235Z,9.20
2023-04-26T10:18:10.257Z,8.60
2023-04-26T10:19:10.834Z,8.80
2023-04-26T10:20:14.526Z,8.10
2023-04-26T10:21:11.045Z,7.80
2023-04-26T10:22:10.833Z,7.20
2023-04-26T10:23:10.176Z,8.60
2023-04-26T10:24:10.190Z,10.70
2023-04-26T10:25:10.133Z,10.90
2023-04-26T10:26:11.160Z,7.20
2023-04-26T10:27:11.001Z,8.10
2023-04-26T10:28:10.153Z,8.50
2023-04-26T10:29:10.196Z,9.30
2023-04-26T10:30:10.837Z,9.70
2023-04-26T10:31:11.581Z,7.40
2023-04-26T10:32:10.206Z,6.80
2023-04-26T10:33:11.091Z,6.80
2023-04-26T10:34:11.948Z,7.90
2023-04-26T10:35:10.128Z,6.90
2023-04-26T10:36:10.037Z,8.20
2023-04-26T10:37:10.146Z,5.80
2023-04-26T10:38:10.001Z,7.30
2023-04-26T10:39:10.204Z,11.20
2023-04-26T10:40:09.985Z,6.90
2023-04-26T10:41:10.102Z,8.80
2023-04-26T10:42:09.980Z,9.90
2023-04-26T10:43:10.025Z,8.00
2023-04-26T10:44:09.930Z,7.60
2023-04-26T10:45:09.976Z,7.60
2023-04-26T10:46:09.983Z,7.70
2023-04-26T10:47:09.994Z,9.60
2023-04-26T10:48:09.984Z,9.10
2023-04-26T10:49:09.932Z,8.50
2023-04-26T10:50:09.963Z,10.60
2023-04-26T10:51:09.893Z,10.90
2023-04-26T10:52:09.929Z,9.50
2023-04-26T10:53:09.895Z,8.20
2023-04-26T10:54:09.868Z,7.10
2023-04-26T10:55:09.869Z,9.40
2023-04-26T10:56:09.826Z,8.60
2023-04-26T10:57:09.832Z,9.50
2023-04-26T10:58:09.877Z,9.80
2023-04-26T10:59:30.716Z,9.20
2023-04-26T11:00:09.790Z,9.10
2023-04-26T11:01:09.834Z,8.40
2023-04-26T11:02:09.767Z,7.60
2023-04-26T11:03:10.032Z,10.40
2023-04-26T11:04:09.824Z,6.40
2023-04-26T11:05:09.825Z,9.90
2023-04-26T11:06:09.755Z,9.90
2023-04-26T11:07:09.741Z,7.50
2023-04-26T11:08:09.743Z,9.10
2023-04-26T11:09:09.738Z,6.50
2023-04-26T11:10:09.732Z,8.10
2023-04-26T11:11:09.683Z,6.30
2023-04-26T11:12:09.666Z,7.30
2023-04-26T11:13:09.696Z,9.70
2023-04-26T11:14:09.670Z,7.20
2023-04-26T11:15:09.675Z,5.40
2023-04-26T11:16:09.746Z,11.70
2023-04-26T11:17:09.691Z,7.70
2023-04-26T11:18:09.614Z,8.70
2023-04-26T11:19:09.625Z,8.50
2023-04-26T11:20:09.636Z,8.30
2023-04-26T11:21:09.615Z,9.20
2023-04-26T11:22:09.584Z,6.50
2023-04-26T11:23:09.598Z,9.20
2023-04-26T11:24:09.547Z,6.60
2023-04-26T11:25:09.607Z,6.80
2023-04-26T11:26:09.580Z,10.10
2023-04-26T11:27:09.531Z,8.70
2023-04-26T11:28:09.539Z,10.60
2023-04-26T11:29:09.552Z,8.80
2023-04-26T11:30:09.513Z,5.70
2023-04-26T11:31:09.615Z,8.30
2023-04-26T11:32:09.470Z,8.10
2023-04-26T11:33:09.490Z,8.50
2023-04-26T11:34:09.465Z,7.00
2023-04-26T11:35:09.497Z,7.10
2023-04-26T11:36:09.429Z,8.20
2023-04-26T11:37:09.403Z,11.00
2023-04-26T11:38:09.437Z,8.30
2023-04-26T11:39:09.380Z,7.70
2023-04-26T11:40:09.434Z,8.80
2023-04-26T11:41:09.373Z,9.20
2023-04-26T11:42:09.377Z,8.40
2023-04-26T11:43:09.339Z,8.80
2023-04-26T11:44:09.528Z,7.40
2023-04-26T11:45:09.392Z,7.30
2023-04-26T11:46:09.546Z,10.80
2023-04-26T11:47:09.450Z,7.40
2023-04-26T11:48:09.337Z,10.80
2023-04-26T11:49:09.314Z,5.90
2023-04-26T11:50:09.277Z,9.40
2023-04-26T11:51:09.346Z,8.90
2023-04-26T11:52:09.236Z,6.10
2023-04-26T11:53:09.262Z,12.60
2023-04-26T11:54:09.212Z,9.60
2023-04-26T11:55:09.258Z,9.30
2023-04-26T11:56:09.196Z,7.20
2023-04-26T11:57:09.175Z,7.70
2023-04-26T11:58:09.191Z,8.00
2023-04-26T11:59:09.240Z,6.90
2023-04-26T12:00:09.199Z,7.60
2023-04-26T12:01:09.222Z,9.80
2023-04-26T12:02:09.147Z,8.00
2023-04-26T12:03:09.384Z,12.10
2023-04-26T12:04:09.231Z,7.10
2023-04-26T12:05:09.200Z,7.70
2023-04-26T12:06:09.104Z,8.20
2023-04-26T12:07:09.142Z,7.80
2023-04-26T12:08:09.062Z,8.70
2023-04-26T12:09:09.089Z,8.80
2023-04-26T12:10:09.031Z,7.40
2023-04-26T12:11:09.041Z,6.90
2023-04-26T12:12:09.021Z,8.50
2023-04-26T12:13:08.991Z,7.00
2023-04-26T12:14:09.060Z,10.30
2023-04-26T12:15:08.994Z,9.20
2023-04-26T12:16:22.252Z,8.40
2023-04-26T12:17:09.041Z,7.40
2023-04-26T12:18:09.114Z,8.00
2023-04-26T12:19:09.034Z,7.10
2023-04-26T12:20:08.964Z,7.00
2023-04-26T12:21:08.920Z,6.30
2023-04-26T12:22:08.958Z,8.10
2023-04-26T12:23:09.204Z,8.10
2023-04-26T12:24:09.820Z,7.20
2023-04-26T12:25:08.935Z,8.80
2023-04-26T12:26:08.863Z,10.60
2023-04-26T12:27:08.873Z,7.20
2023-04-26T12:28:08.873Z,9.20
2023-04-26T12:29:09.507Z,7.80
2023-04-26T12:30:08.843Z,10.10
2023-04-26T12:31:08.946Z,8.50
2023-04-26T12:32:08.891Z,10.60
2023-04-26T12:33:17.258Z,9.80
2023-04-26T12:34:08.811Z,8.20
2023-04-26T12:35:08.802Z,10.00
2023-04-26T12:36:08.762Z,9.20
2023-04-26T12:37:09.148Z,8.90
2023-04-26T12:38:11.340Z,8.10
2023-04-26T12:39:08.832Z,8.50
2023-04-26T12:40:08.997Z,8.60
2023-04-26T12:41:08.971Z,10.10
2023-04-26T12:42:08.732Z,10.10
2023-04-26T12:43:08.736Z,7.70
2023-04-26T12:44:08.669Z,11.80
2023-04-26T12:45:08.864Z,11.30
2023-04-26T12:46:08.826Z,6.50
2023-04-26T12:47:08.652Z,8.80
2023-04-26T12:48:08.689Z,11.00
2023-04-26T12:49:08.720Z,7.10
2023-04-26T12:50:08.658Z,6.90
2023-04-26T12:51:10.848Z,8.80
2023-04-26T12:52:08.632Z,10.10
2023-04-26T12:53:08.719Z,7.40
2023-04-26T12:54:08.967Z,8.70
2023-04-26T12:55:08.612Z,10.00
2023-04-26T12:56:08.597Z,8.50
2023-04-26T12:57:08.658Z,7.80
2023-04-26T12:58:08.721Z,6.60
2023-04-26T12:59:08.613Z,6.70
2023-04-26T13:00:08.509Z,8.40
2023-04-26T13:01:08.552Z,7.50